Pinon Hills, California
Current Conditions -  °F | °C
As of 3:55 PM on Wednesday 28 Jan 2015 (Local Time) from KGXA Reporting Station
Broken Clouds Broken Clouds  
Wind Chill: 57°   Ceiling: 15000
Heat Index: 57°   Visibility: 10mi
Dew Point: 42°   Wind: 6mph
Humidity: 58%   Direction: 60°ENE
Pressure: 30.19"   Gusts: NA
Location:  34.43°N, 117.65°W
Report Text: KGXA 282355Z AUTO 06005KT 10SM FEW130 BKN150 14/06 A3019 RMK AO2 SLP236 T01370056 10146 20088 401460044 55002 TSNO $
Loading
Personal Weather Stations






























Interactive Weather Map New forecast layout! Learn more

10-Day Weather Forecast

Advertisements
Track Severe Weather on mobile